sensor_id;sensor_type;location;lat;lon;timestamp;P1;durP1;ratioP1;P2;durP2;ratioP2
39918;SDS011;25589;51.552;13.424;2023-11-19T00:02:19;8.57;;;5.63;;
39918;SDS011;25589;51.552;13.424;2023-11-19T00:04:44;6.53;;;4.93;;
39918;SDS011;25589;51.552;13.424;2023-11-19T00:07:10;8.00;;;5.10;;
39918;SDS011;25589;51.552;13.424;2023-11-19T00:09:38;7.90;;;5.10;;
39918;SDS011;25589;51.552;13.424;2023-11-19T00:12:04;8.98;;;5.03;;
39918;SDS011;25589;51.552;13.424;2023-11-19T00:14:30;7.75;;;5.30;;
39918;SDS011;25589;51.552;13.424;2023-11-19T00:16:56;6.35;;;4.90;;
39918;SDS011;25589;51.552;13.424;2023-11-19T00:19:22;9.98;;;5.65;;
39918;SDS011;25589;51.552;13.424;2023-11-19T00:21:47;9.43;;;5.20;;
39918;SDS011;25589;51.552;13.424;2023-11-19T00:24:13;6.68;;;4.65;;
39918;SDS011;25589;51.552;13.424;2023-11-19T00:26:41;9.02;;;5.47;;
39918;SDS011;25589;51.552;13.424;2023-11-19T00:29:07;6.72;;;4.68;;
39918;SDS011;25589;51.552;13.424;2023-11-19T00:31:32;7.50;;;5.05;;
39918;SDS011;25589;51.552;13.424;2023-11-19T00:33:58;6.80;;;5.18;;
39918;SDS011;25589;51.552;13.424;2023-11-19T00:36:24;7.35;;;5.10;;
39918;SDS011;25589;51.552;13.424;2023-11-19T00:38:50;9.13;;;4.95;;
39918;SDS011;25589;51.552;13.424;2023-11-19T00:41:17;6.63;;;4.75;;
39918;SDS011;25589;51.552;13.424;2023-11-19T00:43:43;5.72;;;4.55;;
39918;SDS011;25589;51.552;13.424;2023-11-19T00:46:10;5.07;;;4.05;;
39918;SDS011;25589;51.552;13.424;2023-11-19T00:48:41;7.05;;;4.63;;
39918;SDS011;25589;51.552;13.424;2023-11-19T00:51:07;5.68;;;4.28;;
39918;SDS011;25589;51.552;13.424;2023-11-19T00:53:33;6.35;;;4.45;;
39918;SDS011;25589;51.552;13.424;2023-11-19T00:56:00;5.53;;;3.90;;
39918;SDS011;25589;51.552;13.424;2023-11-19T00:58:25;6.25;;;4.60;;
39918;SDS011;25589;51.552;13.424;2023-11-19T01:00:52;6.88;;;4.90;;
39918;SDS011;25589;51.552;13.424;2023-11-19T01:03:17;7.95;;;5.05;;
39918;SDS011;25589;51.552;13.424;2023-11-19T01:05:43;8.13;;;5.20;;
39918;SDS011;25589;51.552;13.424;2023-11-19T01:08:09;6.68;;;4.38;;
39918;SDS011;25589;51.552;13.424;2023-11-19T01:10:36;7.00;;;5.07;;
39918;SDS011;25589;51.552;13.424;2023-11-19T01:13:02;6.78;;;4.55;;
39918;SDS011;25589;51.552;13.424;2023-11-19T01:15:30;5.90;;;4.57;;
39918;SDS011;25589;51.552;13.424;2023-11-19T01:17:56;6.70;;;5.20;;
39918;SDS011;25589;51.552;13.424;2023-11-19T01:20:22;6.07;;;4.80;;
39918;SDS011;25589;51.552;13.424;2023-11-19T01:22:48;6.90;;;4.90;;
39918;SDS011;25589;51.552;13.424;2023-11-19T01:25:14;8.20;;;5.13;;
39918;SDS011;25589;51.552;13.424;2023-11-19T01:27:39;7.68;;;5.15;;
39918;SDS011;25589;51.552;13.424;2023-11-19T01:30:05;6.63;;;5.05;;
39918;SDS011;25589;51.552;13.424;2023-11-19T01:32:34;7.45;;;5.07;;
39918;SDS011;25589;51.552;13.424;2023-11-19T01:35:01;7.50;;;5.20;;
39918;SDS011;25589;51.552;13.424;2023-11-19T01:37:29;6.70;;;4.80;;
39918;SDS011;25589;51.552;13.424;2023-11-19T01:39:54;6.57;;;5.15;;
39918;SDS011;25589;51.552;13.424;2023-11-19T01:42:20;7.55;;;5.20;;
39918;SDS011;25589;51.552;13.424;2023-11-19T01:44:58;8.50;;;5.15;;
39918;SDS011;25589;51.552;13.424;2023-11-19T01:47:28;8.27;;;5.95;;
39918;SDS011;25589;51.552;13.424;2023-11-19T01:49:55;9.50;;;5.45;;
39918;SDS011;25589;51.552;13.424;2023-11-19T01:52:21;9.20;;;6.25;;
39918;SDS011;25589;51.552;13.424;2023-11-19T01:54:48;7.63;;;5.55;;
39918;SDS011;25589;51.552;13.424;2023-11-19T01:57:15;7.63;;;6.07;;
39918;SDS011;25589;51.552;13.424;2023-11-19T01:59:41;8.90;;;5.88;;
39918;SDS011;25589;51.552;13.424;2023-11-19T02:02:07;9.10;;;6.15;;
39918;SDS011;25589;51.552;13.424;2023-11-19T02:04:32;9.48;;;5.90;;
39918;SDS011;25589;51.552;13.424;2023-11-19T02:07:00;7.10;;;5.35;;
39918;SDS011;25589;51.552;13.424;2023-11-19T02:09:25;9.88;;;5.85;;
39918;SDS011;25589;51.552;13.424;2023-11-19T02:11:52;8.85;;;6.10;;
39918;SDS011;25589;51.552;13.424;2023-11-19T02:14:19;7.03;;;5.78;;
39918;SDS011;25589;51.552;13.424;2023-11-19T02:16:48;9.77;;;5.82;;
39918;SDS011;25589;51.552;13.424;2023-11-19T02:19:14;8.63;;;6.30;;
39918;SDS011;25589;51.552;13.424;2023-11-19T02:21:40;9.50;;;5.82;;
39918;SDS011;25589;51.552;13.424;2023-11-19T02:24:07;9.23;;;6.18;;
39918;SDS011;25589;51.552;13.424;2023-11-19T02:29:12;9.82;;;5.57;;
39918;SDS011;25589;51.552;13.424;2023-11-19T02:31:38;7.13;;;5.30;;
39918;SDS011;25589;51.552;13.424;2023-11-19T02:34:04;8.90;;;6.35;;
39918;SDS011;25589;51.552;13.424;2023-11-19T02:36:30;10.07;;;6.78;;
39918;SDS011;25589;51.552;13.424;2023-11-19T02:38:57;8.80;;;6.10;;
39918;SDS011;25589;51.552;13.424;2023-11-19T02:41:23;6.57;;;5.18;;
39918;SDS011;25589;51.552;13.424;2023-11-19T02:43:49;7.97;;;6.03;;
39918;SDS011;25589;51.552;13.424;2023-11-19T02:46:15;8.75;;;5.78;;
39918;SDS011;25589;51.552;13.424;2023-11-19T02:48:42;8.57;;;5.63;;
39918;SDS011;25589;51.552;13.424;2023-11-19T02:51:09;6.65;;;5.28;;
39918;SDS011;25589;51.552;13.424;2023-11-19T02:53:35;7.70;;;5.75;;
39918;SDS011;25589;51.552;13.424;2023-11-19T02:56:02;8.07;;;5.82;;
39918;SDS011;25589;51.552;13.424;2023-11-19T02:58:37;8.68;;;5.47;;
39918;SDS011;25589;51.552;13.424;2023-11-19T03:01:04;7.45;;;5.57;;
39918;SDS011;25589;51.552;13.424;2023-11-19T03:03:38;7.07;;;5.25;;
39918;SDS011;25589;51.552;13.424;2023-11-19T03:06:05;8.25;;;6.03;;
39918;SDS011;25589;51.552;13.424;2023-11-19T03:08:32;6.75;;;5.30;;
39918;SDS011;25589;51.552;13.424;2023-11-19T03:10:58;11.00;;;6.07;;
39918;SDS011;25589;51.552;13.424;2023-11-19T03:13:24;7.88;;;4.93;;
39918;SDS011;25589;51.552;13.424;2023-11-19T03:15:49;6.80;;;4.90;;
39918;SDS011;25589;51.552;13.424;2023-11-19T03:18:16;8.27;;;5.15;;
39918;SDS011;25589;51.552;13.424;2023-11-19T03:20:42;7.65;;;4.70;;
39918;SDS011;25589;51.552;13.424;2023-11-19T03:23:08;7.53;;;5.28;;
39918;SDS011;25589;51.552;13.424;2023-11-19T03:25:33;6.47;;;4.90;;
39918;SDS011;25589;51.552;13.424;2023-11-19T03:28:02;7.82;;;4.57;;
39918;SDS011;25589;51.552;13.424;2023-11-19T03:30:28;7.93;;;5.00;;
39918;SDS011;25589;51.552;13.424;2023-11-19T03:32:55;6.55;;;4.68;;
39918;SDS011;25589;51.552;13.424;2023-11-19T03:35:21;6.88;;;4.35;;
39918;SDS011;25589;51.552;13.424;2023-11-19T03:37:47;6.22;;;4.32;;
39918;SDS011;25589;51.552;13.424;2023-11-19T03:40:13;5.53;;;3.97;;
39918;SDS011;25589;51.552;13.424;2023-11-19T03:42:39;5.95;;;4.53;;
39918;SDS011;25589;51.552;13.424;2023-11-19T03:45:06;7.22;;;4.53;;
39918;SDS011;25589;51.552;13.424;2023-11-19T03:47:33;6.18;;;4.35;;
39918;SDS011;25589;51.552;13.424;2023-11-19T03:49:59;5.28;;;4.40;;
39918;SDS011;25589;51.552;13.424;2023-11-19T03:52:25;5.55;;;3.85;;
39918;SDS011;25589;51.552;13.424;2023-11-19T03:54:52;5.90;;;3.65;;
39918;SDS011;25589;51.552;13.424;2023-11-19T03:57:19;7.13;;;4.30;;
39918;SDS011;25589;51.552;13.424;2023-11-19T03:59:45;6.22;;;4.38;;
39918;SDS011;25589;51.552;13.424;2023-11-19T04:02:10;5.65;;;3.90;;
39918;SDS011;25589;51.552;13.424;2023-11-19T04:04:36;5.90;;;4.07;;
39918;SDS011;25589;51.552;13.424;2023-11-19T04:07:03;4.43;;;3.67;;
39918;SDS011;25589;51.552;13.424;2023-11-19T04:09:30;4.22;;;3.45;;
39918;SDS011;25589;51.552;13.424;2023-11-19T04:11:56;4.20;;;3.38;;
39918;SDS011;25589;51.552;13.424;2023-11-19T04:14:22;4.93;;;3.58;;
39918;SDS011;25589;51.552;13.424;2023-11-19T04:16:48;4.22;;;3.63;;
39918;SDS011;25589;51.552;13.424;2023-11-19T04:19:14;5.55;;;3.50;;
39918;SDS011;25589;51.552;13.424;2023-11-19T04:21:39;5.10;;;3.40;;
39918;SDS011;25589;51.552;13.424;2023-11-19T04:24:08;6.10;;;3.72;;
39918;SDS011;25589;51.552;13.424;2023-11-19T04:26:46;4.78;;;3.53;;
39918;SDS011;25589;51.552;13.424;2023-11-19T04:29:12;5.15;;;3.25;;
39918;SDS011;25589;51.552;13.424;2023-11-19T04:31:39;4.40;;;3.63;;
39918;SDS011;25589;51.552;13.424;2023-11-19T04:34:05;4.85;;;3.13;;
39918;SDS011;25589;51.552;13.424;2023-11-19T04:36:31;3.55;;;3.03;;
39918;SDS011;25589;51.552;13.424;2023-11-19T04:38:58;3.30;;;3.00;;
39918;SDS011;25589;51.552;13.424;2023-11-19T04:41:25;4.57;;;3.40;;
39918;SDS011;25589;51.552;13.424;2023-11-19T04:43:52;4.35;;;3.60;;
39918;SDS011;25589;51.552;13.424;2023-11-19T04:46:18;5.10;;;3.50;;
39918;SDS011;25589;51.552;13.424;2023-11-19T04:48:44;3.78;;;3.05;;
39918;SDS011;25589;51.552;13.424;2023-11-19T04:51:09;4.80;;;3.45;;
39918;SDS011;25589;51.552;13.424;2023-11-19T04:53:35;4.97;;;3.50;;
39918;SDS011;25589;51.552;13.424;2023-11-19T04:56:01;3.97;;;3.00;;
39918;SDS011;25589;51.552;13.424;2023-11-19T04:58:32;5.72;;;3.00;;
39918;SDS011;25589;51.552;13.424;2023-11-19T05:00:57;5.03;;;3.05;;
39918;SDS011;25589;51.552;13.424;2023-11-19T05:03:23;4.03;;;3.33;;
39918;SDS011;25589;51.552;13.424;2023-11-19T05:05:48;5.13;;;3.17;;
39918;SDS011;25589;51.552;13.424;2023-11-19T05:08:14;3.58;;;3.08;;
39918;SDS011;25589;51.552;13.424;2023-11-19T05:10:39;5.05;;;3.45;;
39918;SDS011;25589;51.552;13.424;2023-11-19T05:13:05;3.25;;;2.75;;
39918;SDS011;25589;51.552;13.424;2023-11-19T05:15:31;3.33;;;3.03;;
39918;SDS011;25589;51.552;13.424;2023-11-19T05:17:56;4.20;;;3.20;;
39918;SDS011;25589;51.552;13.424;2023-11-19T05:20:22;3.55;;;2.95;;
39918;SDS011;25589;51.552;13.424;2023-11-19T05:22:47;3.80;;;3.08;;
39918;SDS011;25589;51.552;13.424;2023-11-19T05:25:13;6.38;;;2.60;;
39918;SDS011;25589;51.552;13.424;2023-11-19T05:27:38;3.22;;;2.92;;
39918;SDS011;25589;51.552;13.424;2023-11-19T05:30:06;3.40;;;2.78;;
39918;SDS011;25589;51.552;13.424;2023-11-19T05:32:32;3.30;;;2.70;;
39918;SDS011;25589;51.552;13.424;2023-11-19T05:34:58;4.00;;;2.78;;
39918;SDS011;25589;51.552;13.424;2023-11-19T05:37:24;4.13;;;2.85;;
39918;SDS011;25589;51.552;13.424;2023-11-19T05:39:50;4.53;;;2.78;;
39918;SDS011;25589;51.552;13.424;2023-11-19T05:42:15;3.35;;;2.70;;
39918;SDS011;25589;51.552;13.424;2023-11-19T05:44:42;2.63;;;2.38;;
39918;SDS011;25589;51.552;13.424;2023-11-19T05:47:07;3.13;;;2.55;;
39918;SDS011;25589;51.552;13.424;2023-11-19T05:49:33;4.28;;;2.75;;
39918;SDS011;25589;51.552;13.424;2023-11-19T05:51:58;3.35;;;3.05;;
39918;SDS011;25589;51.552;13.424;2023-11-19T05:54:26;2.53;;;2.20;;
39918;SDS011;25589;51.552;13.424;2023-11-19T05:56:52;2.80;;;2.60;;
39918;SDS011;25589;51.552;13.424;2023-11-19T05:59:19;3.20;;;2.50;;
39918;SDS011;25589;51.552;13.424;2023-11-19T06:01:45;3.53;;;2.92;;
39918;SDS011;25589;51.552;13.424;2023-11-19T06:04:11;2.90;;;2.55;;
39918;SDS011;25589;51.552;13.424;2023-11-19T06:06:37;3.00;;;2.55;;
39918;SDS011;25589;51.552;13.424;2023-11-19T06:09:03;2.78;;;2.47;;
39918;SDS011;25589;51.552;13.424;2023-11-19T06:11:30;4.95;;;2.40;;
39918;SDS011;25589;51.552;13.424;2023-11-19T06:13:56;2.35;;;2.15;;
39918;SDS011;25589;51.552;13.424;2023-11-19T06:16:22;3.10;;;2.30;;
39918;SDS011;25589;51.552;13.424;2023-11-19T06:18:48;2.88;;;1.98;;
39918;SDS011;25589;51.552;13.424;2023-11-19T06:21:13;2.75;;;2.50;;
39918;SDS011;25589;51.552;13.424;2023-11-19T06:23:39;2.92;;;2.35;;
39918;SDS011;25589;51.552;13.424;2023-11-19T06:26:04;3.65;;;2.75;;
39918;SDS011;25589;51.552;13.424;2023-11-19T06:28:30;3.33;;;2.50;;
39918;SDS011;25589;51.552;13.424;2023-11-19T06:30:56;3.53;;;2.50;;
39918;SDS011;25589;51.552;13.424;2023-11-19T06:33:23;4.75;;;2.83;;
39918;SDS011;25589;51.552;13.424;2023-11-19T06:35:49;3.17;;;2.58;;
39918;SDS011;25589;51.552;13.424;2023-11-19T06:38:15;3.10;;;2.80;;
39918;SDS011;25589;51.552;13.424;2023-11-19T06:40:40;4.00;;;2.53;;
39918;SDS011;25589;51.552;13.424;2023-11-19T06:43:06;4.70;;;2.88;;
39918;SDS011;25589;51.552;13.424;2023-11-19T06:45:33;3.88;;;2.83;;
39918;SDS011;25589;51.552;13.424;2023-11-19T06:48:02;2.70;;;2.22;;
39918;SDS011;25589;51.552;13.424;2023-11-19T06:50:31;3.53;;;2.40;;
39918;SDS011;25589;51.552;13.424;2023-11-19T06:52:57;2.78;;;2.47;;
39918;SDS011;25589;51.552;13.424;2023-11-19T06:55:23;3.95;;;2.63;;
39918;SDS011;25589;51.552;13.424;2023-11-19T06:57:48;2.83;;;2.35;;
39918;SDS011;25589;51.552;13.424;2023-11-19T07:00:14;3.78;;;2.22;;
39918;SDS011;25589;51.552;13.424;2023-11-19T07:02:40;2.70;;;2.03;;
39918;SDS011;25589;51.552;13.424;2023-11-19T07:05:05;2.92;;;2.20;;
39918;SDS011;25589;51.552;13.424;2023-11-19T07:07:31;3.15;;;2.15;;
39918;SDS011;25589;51.552;13.424;2023-11-19T07:10:00;3.58;;;2.13;;
39918;SDS011;25589;51.552;13.424;2023-11-19T07:12:27;3.22;;;2.47;;
39918;SDS011;25589;51.552;13.424;2023-11-19T07:14:52;3.30;;;2.10;;
39918;SDS011;25589;51.552;13.424;2023-11-19T07:17:20;2.33;;;1.85;;
39918;SDS011;25589;51.552;13.424;2023-11-19T07:19:46;2.22;;;1.98;;
39918;SDS011;25589;51.552;13.424;2023-11-19T07:22:12;2.00;;;1.80;;
39918;SDS011;25589;51.552;13.424;2023-11-19T07:24:40;3.08;;;1.80;;
39918;SDS011;25589;51.552;13.424;2023-11-19T07:27:06;5.45;;;1.73;;
39918;SDS011;25589;51.552;13.424;2023-11-19T07:29:34;2.65;;;1.58;;
39918;SDS011;25589;51.552;13.424;2023-11-19T07:32:00;2.33;;;1.60;;
39918;SDS011;25589;51.552;13.424;2023-11-19T07:34:27;2.10;;;1.52;;
39918;SDS011;25589;51.552;13.424;2023-11-19T07:36:54;14.50;;;13.15;;
39918;SDS011;25589;51.552;13.424;2023-11-19T07:39:22;4.95;;;2.28;;
39918;SDS011;25589;51.552;13.424;2023-11-19T07:41:48;2.72;;;2.35;;
39918;SDS011;25589;51.552;13.424;2023-11-19T07:44:14;2.97;;;1.80;;
39918;SDS011;25589;51.552;13.424;2023-11-19T07:46:40;1.73;;;1.63;;
39918;SDS011;25589;51.552;13.424;2023-11-19T07:49:07;2.58;;;1.90;;
39918;SDS011;25589;51.552;13.424;2023-11-19T07:51:34;5.38;;;2.67;;
39918;SDS011;25589;51.552;13.424;2023-11-19T07:54:00;3.28;;;2.33;;
39918;SDS011;25589;51.552;13.424;2023-11-19T07:56:25;1.33;;;1.23;;
39918;SDS011;25589;51.552;13.424;2023-11-19T07:58:51;2.80;;;1.50;;
39918;SDS011;25589;51.552;13.424;2023-11-19T08:01:17;2.33;;;1.15;;
39918;SDS011;25589;51.552;13.424;2023-11-19T08:03:43;1.65;;;1.13;;
39918;SDS011;25589;51.552;13.424;2023-11-19T08:06:09;1.25;;;1.00;;
39918;SDS011;25589;51.552;13.424;2023-11-19T08:08:34;1.10;;;0.85;;
39918;SDS011;25589;51.552;13.424;2023-11-19T08:11:00;3.08;;;0.88;;
39918;SDS011;25589;51.552;13.424;2023-11-19T08:13:26;3.85;;;0.60;;
39918;SDS011;25589;51.552;13.424;2023-11-19T08:15:52;0.50;;;0.43;;
39918;SDS011;25589;51.552;13.424;2023-11-19T08:18:17;0.70;;;0.43;;
39918;SDS011;25589;51.552;13.424;2023-11-19T08:20:43;1.75;;;0.47;;
39918;SDS011;25589;51.552;13.424;2023-11-19T08:23:10;0.47;;;0.40;;
39918;SDS011;25589;51.552;13.424;2023-11-19T08:25:35;0.30;;;0.30;;
39918;SDS011;25589;51.552;13.424;2023-11-19T08:28:01;0.75;;;0.38;;
39918;SDS011;25589;51.552;13.424;2023-11-19T08:30:28;0.65;;;0.35;;
39918;SDS011;25589;51.552;13.424;2023-11-19T08:32:54;0.47;;;0.47;;
39918;SDS011;25589;51.552;13.424;2023-11-19T08:35:20;1.02;;;0.32;;
39918;SDS011;25589;51.552;13.424;2023-11-19T08:37:45;1.33;;;0.60;;
39918;SDS011;25589;51.552;13.424;2023-11-19T08:40:11;1.67;;;0.47;;
39918;SDS011;25589;51.552;13.424;2023-11-19T08:42:38;1.55;;;0.63;;
39918;SDS011;25589;51.552;13.424;2023-11-19T08:45:04;0.52;;;0.52;;
39918;SDS011;25589;51.552;13.424;2023-11-19T08:47:30;0.75;;;0.60;;
39918;SDS011;25589;51.552;13.424;2023-11-19T08:49:56;2.20;;;0.60;;
39918;SDS011;25589;51.552;13.424;2023-11-19T08:52:21;0.50;;;0.50;;
39918;SDS011;25589;51.552;13.424;2023-11-19T08:54:47;0.82;;;0.60;;
39918;SDS011;25589;51.552;13.424;2023-11-19T08:57:12;1.17;;;0.70;;
39918;SDS011;25589;51.552;13.424;2023-11-19T08:59:38;0.57;;;0.50;;
39918;SDS011;25589;51.552;13.424;2023-11-19T09:02:07;1.25;;;0.50;;
39918;SDS011;25589;51.552;13.424;2023-11-19T09:04:33;1.67;;;0.55;;
39918;SDS011;25589;51.552;13.424;2023-11-19T09:06:59;2.67;;;0.52;;
39918;SDS011;25589;51.552;13.424;2023-11-19T09:09:24;0.40;;;0.40;;
39918;SDS011;25589;51.552;13.424;2023-11-19T09:11:50;1.45;;;0.55;;
39918;SDS011;25589;51.552;13.424;2023-11-19T09:14:15;2.20;;;0.52;;
39918;SDS011;25589;51.552;13.424;2023-11-19T09:16:43;1.70;;;0.60;;
39918;SDS011;25589;51.552;13.424;2023-11-19T09:19:09;1.75;;;0.60;;
39918;SDS011;25589;51.552;13.424;2023-11-19T09:21:35;1.95;;;0.63;;
39918;SDS011;25589;51.552;13.424;2023-11-19T09:24:03;0.52;;;0.50;;
39918;SDS011;25589;51.552;13.424;2023-11-19T09:26:29;1.15;;;0.50;;
39918;SDS011;25589;51.552;13.424;2023-11-19T09:28:55;0.65;;;0.50;;
39918;SDS011;25589;51.552;13.424;2023-11-19T09:31:21;0.77;;;0.60;;
39918;SDS011;25589;51.552;13.424;2023-11-19T09:33:46;1.50;;;0.73;;
39918;SDS011;25589;51.552;13.424;2023-11-19T09:36:12;2.63;;;0.80;;
39918;SDS011;25589;51.552;13.424;2023-11-19T09:38:39;1.52;;;0.65;;
39918;SDS011;25589;51.552;13.424;2023-11-19T09:41:05;1.27;;;0.63;;
39918;SDS011;25589;51.552;13.424;2023-11-19T09:43:34;1.88;;;0.75;;
39918;SDS011;25589;51.552;13.424;2023-11-19T09:46:04;1.83;;;0.68;;
39918;SDS011;25589;51.552;13.424;2023-11-19T09:48:35;2.65;;;1.25;;
39918;SDS011;25589;51.552;13.424;2023-11-19T09:51:02;2.20;;;0.70;;
39918;SDS011;25589;51.552;13.424;2023-11-19T09:53:29;5.38;;;1.10;;
39918;SDS011;25589;51.552;13.424;2023-11-19T09:55:55;4.22;;;1.60;;
39918;SDS011;25589;51.552;13.424;2023-11-19T09:58:22;3.58;;;1.20;;
39918;SDS011;25589;51.552;13.424;2023-11-19T10:00:48;1.65;;;0.80;;
39918;SDS011;25589;51.552;13.424;2023-11-19T10:03:14;5.00;;;1.20;;
39918;SDS011;25589;51.552;13.424;2023-11-19T10:05:40;0.70;;;0.68;;
39918;SDS011;25589;51.552;13.424;2023-11-19T10:08:06;3.25;;;1.00;;
39918;SDS011;25589;51.552;13.424;2023-11-19T10:10:33;3.72;;;0.98;;
39918;SDS011;25589;51.552;13.424;2023-11-19T10:12:59;3.60;;;0.98;;
39918;SDS011;25589;51.552;13.424;2023-11-19T10:15:26;1.08;;;0.65;;
39918;SDS011;25589;51.552;13.424;2023-11-19T10:18:01;0.93;;;0.80;;
39918;SDS011;25589;51.552;13.424;2023-11-19T10:20:26;4.93;;;1.10;;
39918;SDS011;25589;51.552;13.424;2023-11-19T10:22:55;3.33;;;0.80;;
39918;SDS011;25589;51.552;13.424;2023-11-19T10:25:21;5.80;;;0.90;;
39918;SDS011;25589;51.552;13.424;2023-11-19T10:27:54;1.15;;;0.88;;
39918;SDS011;25589;51.552;13.424;2023-11-19T10:30:21;4.75;;;0.98;;
39918;SDS011;25589;51.552;13.424;2023-11-19T10:33:07;9.15;;;1.23;;
39918;SDS011;25589;51.552;13.424;2023-11-19T10:35:51;4.40;;;0.95;;
39918;SDS011;25589;51.552;13.424;2023-11-19T10:38:18;4.18;;;1.20;;
39918;SDS011;25589;51.552;13.424;2023-11-19T10:40:44;3.72;;;0.98;;
39918;SDS011;25589;51.552;13.424;2023-11-19T10:43:10;3.55;;;1.15;;
39918;SDS011;25589;51.552;13.424;2023-11-19T10:45:36;2.20;;;1.23;;
39918;SDS011;25589;51.552;13.424;2023-11-19T10:48:02;7.22;;;1.90;;
39918;SDS011;25589;51.552;13.424;2023-11-19T10:50:32;3.53;;;1.40;;
39918;SDS011;25589;51.552;13.424;2023-11-19T10:52:58;2.90;;;1.30;;
39918;SDS011;25589;51.552;13.424;2023-11-19T10:55:28;6.47;;;1.95;;
39918;SDS011;25589;51.552;13.424;2023-11-19T10:58:02;3.53;;;1.40;;
39918;SDS011;25589;51.552;13.424;2023-11-19T11:00:30;3.78;;;1.60;;
39918;SDS011;25589;51.552;13.424;2023-11-19T11:03:01;3.95;;;1.77;;
39918;SDS011;25589;51.552;13.424;2023-11-19T11:05:28;5.15;;;1.63;;
39918;SDS011;25589;51.552;13.424;2023-11-19T11:07:57;3.55;;;1.52;;
39918;SDS011;25589;51.552;13.424;2023-11-19T11:10:25;6.00;;;2.35;;
39918;SDS011;25589;51.552;13.424;2023-11-19T11:12:51;5.57;;;1.60;;
39918;SDS011;25589;51.552;13.424;2023-11-19T11:15:24;5.37;;;1.63;;
39918;SDS011;25589;51.552;13.424;2023-11-19T11:17:53;6.47;;;2.65;;
39918;SDS011;25589;51.552;13.424;2023-11-19T11:20:31;6.07;;;1.45;;
39918;SDS011;25589;51.552;13.424;2023-11-19T11:25:58;3.42;;;1.45;;
39918;SDS011;25589;51.552;13.424;2023-11-19T11:31:56;5.47;;;1.40;;
39918;SDS011;25589;51.552;13.424;2023-11-19T11:34:40;4.80;;;1.77;;
39918;SDS011;25589;51.552;13.424;2023-11-19T11:37:20;3.55;;;1.20;;
39918;SDS011;25589;51.552;13.424;2023-11-19T11:39:57;6.18;;;1.83;;
39918;SDS011;25589;51.552;13.424;2023-11-19T11:45:07;4.25;;;1.75;;
39918;SDS011;25589;51.552;13.424;2023-11-19T11:48:16;5.50;;;1.67;;
39918;SDS011;25589;51.552;13.424;2023-11-19T11:50:23;7.65;;;2.35;;
39918;SDS011;25589;51.552;13.424;2023-11-19T11:55:24;8.00;;;2.03;;
39918;SDS011;25589;51.552;13.424;2023-11-19T11:57:58;7.93;;;1.80;;
39918;SDS011;25589;51.552;13.424;2023-11-19T12:00:28;7.78;;;2.13;;
39918;SDS011;25589;51.552;13.424;2023-11-19T12:02:56;5.38;;;1.58;;
39918;SDS011;25589;51.552;13.424;2023-11-19T12:05:24;6.60;;;2.13;;
39918;SDS011;25589;51.552;13.424;2023-11-19T12:07:56;4.57;;;1.40;;
39918;SDS011;25589;51.552;13.424;2023-11-19T12:10:28;6.38;;;1.80;;
39918;SDS011;25589;51.552;13.424;2023-11-19T12:13:03;6.85;;;1.50;;
39918;SDS011;25589;51.552;13.424;2023-11-19T12:15:32;4.35;;;1.63;;
39918;SDS011;25589;51.552;13.424;2023-11-19T12:17:57;6.57;;;1.75;;
39918;SDS011;25589;51.552;13.424;2023-11-19T12:20:24;6.00;;;1.42;;
39918;SDS011;25589;51.552;13.424;2023-11-19T12:22:51;6.68;;;1.52;;
39918;SDS011;25589;51.552;13.424;2023-11-19T12:25:18;8.93;;;2.30;;
39918;SDS011;25589;51.552;13.424;2023-11-19T12:27:48;5.25;;;1.50;;
39918;SDS011;25589;51.552;13.424;2023-11-19T12:30:26;3.00;;;1.50;;
39918;SDS011;25589;51.552;13.424;2023-11-19T12:32:52;6.22;;;2.25;;
39918;SDS011;25589;51.552;13.424;2023-11-19T12:35:18;4.60;;;1.65;;
39918;SDS011;25589;51.552;13.424;2023-11-19T12:37:45;5.32;;;1.52;;
39918;SDS011;25589;51.552;13.424;2023-11-19T12:42:56;4.53;;;1.95;;
39918;SDS011;25589;51.552;13.424;2023-11-19T12:45:22;3.65;;;1.40;;
39918;SDS011;25589;51.552;13.424;2023-11-19T12:48:07;5.18;;;1.80;;
39918;SDS011;25589;51.552;13.424;2023-11-19T12:53:19;4.57;;;1.40;;
39918;SDS011;25589;51.552;13.424;2023-11-19T12:55:46;5.03;;;1.48;;
39918;SDS011;25589;51.552;13.424;2023-11-19T12:58:27;8.05;;;1.65;;
39918;SDS011;25589;51.552;13.424;2023-11-19T13:01:01;3.85;;;1.42;;
39918;SDS011;25589;51.552;13.424;2023-11-19T13:03:29;7.13;;;1.95;;
39918;SDS011;25589;51.552;13.424;2023-11-19T13:06:06;1.85;;;1.40;;
39918;SDS011;25589;51.552;13.424;2023-11-19T13:11:06;6.13;;;1.95;;
39918;SDS011;25589;51.552;13.424;2023-11-19T13:13:54;6.65;;;2.25;;
39918;SDS011;25589;51.552;13.424;2023-11-19T13:16:20;5.28;;;1.70;;
39918;SDS011;25589;51.552;13.424;2023-11-19T13:18:45;5.43;;;1.85;;
39918;SDS011;25589;51.552;13.424;2023-11-19T13:21:11;8.40;;;2.13;;
39918;SDS011;25589;51.552;13.424;2023-11-19T13:23:37;6.57;;;2.33;;
39918;SDS011;25589;51.552;13.424;2023-11-19T13:26:03;4.15;;;1.80;;
39918;SDS011;25589;51.552;13.424;2023-11-19T13:28:29;17.83;;;3.55;;
39918;SDS011;25589;51.552;13.424;2023-11-19T13:30:54;7.53;;;2.47;;
39918;SDS011;25589;51.552;13.424;2023-11-19T13:33:20;8.35;;;2.88;;
39918;SDS011;25589;51.552;13.424;2023-11-19T13:35:45;19.10;;;7.13;;
39918;SDS011;25589;51.552;13.424;2023-11-19T13:38:11;23.02;;;7.45;;
39918;SDS011;25589;51.552;13.424;2023-11-19T13:40:37;14.65;;;4.70;;
39918;SDS011;25589;51.552;13.424;2023-11-19T13:43:04;25.08;;;10.30;;
39918;SDS011;25589;51.552;13.424;2023-11-19T13:45:29;36.53;;;12.50;;
39918;SDS011;25589;51.552;13.424;2023-11-19T13:47:55;25.02;;;7.30;;
39918;SDS011;25589;51.552;13.424;2023-11-19T13:50:21;14.82;;;5.50;;
39918;SDS011;25589;51.552;13.424;2023-11-19T13:52:47;57.10;;;18.58;;
39918;SDS011;25589;51.552;13.424;2023-11-19T13:55:13;93.35;;;24.73;;
39918;SDS011;25589;51.552;13.424;2023-11-19T13:57:40;36.40;;;9.38;;
39918;SDS011;25589;51.552;13.424;2023-11-19T14:00:07;13.57;;;2.58;;
39918;SDS011;25589;51.552;13.424;2023-11-19T14:02:44;22.48;;;5.38;;
39918;SDS011;25589;51.552;13.424;2023-11-19T14:05:12;37.80;;;8.35;;
39918;SDS011;25589;51.552;13.424;2023-11-19T14:07:39;30.80;;;8.45;;
39918;SDS011;25589;51.552;13.424;2023-11-19T14:10:05;26.35;;;6.32;;
39918;SDS011;25589;51.552;13.424;2023-11-19T14:12:32;56.00;;;18.25;;
39918;SDS011;25589;51.552;13.424;2023-11-19T14:14:58;37.40;;;15.25;;
39918;SDS011;25589;51.552;13.424;2023-11-19T14:17:25;31.00;;;12.55;;
39918;SDS011;25589;51.552;13.424;2023-11-19T14:19:50;47.22;;;21.25;;
39918;SDS011;25589;51.552;13.424;2023-11-19T14:22:16;23.65;;;14.63;;
39918;SDS011;25589;51.552;13.424;2023-11-19T14:24:42;9.70;;;4.18;;
39918;SDS011;25589;51.552;13.424;2023-11-19T14:27:08;24.55;;;8.70;;
39918;SDS011;25589;51.552;13.424;2023-11-19T14:29:34;15.82;;;6.35;;
39918;SDS011;25589;51.552;13.424;2023-11-19T14:32:00;13.55;;;6.60;;
39918;SDS011;25589;51.552;13.424;2023-11-19T14:34:27;50.28;;;18.88;;
39918;SDS011;25589;51.552;13.424;2023-11-19T14:36:52;58.38;;;21.95;;
39918;SDS011;25589;51.552;13.424;2023-11-19T14:39:19;61.70;;;19.40;;
39918;SDS011;25589;51.552;13.424;2023-11-19T14:41:45;45.22;;;13.57;;
39918;SDS011;25589;51.552;13.424;2023-11-19T14:44:11;69.65;;;21.60;;
39918;SDS011;25589;51.552;13.424;2023-11-19T14:46:36;98.70;;;31.73;;
39918;SDS011;25589;51.552;13.424;2023-11-19T14:49:03;86.30;;;29.15;;
39918;SDS011;25589;51.552;13.424;2023-11-19T14:51:29;139.27;;;43.72;;
39918;SDS011;25589;51.552;13.424;2023-11-19T14:53:55;109.13;;;33.42;;
39918;SDS011;25589;51.552;13.424;2023-11-19T14:56:21;135.75;;;41.20;;